WZZ98 LHBP-LIRF
Flight info
| Callsign | WZZ98 |
|---|---|
| Flight time | N/A |
| Altitude | 36000 |
| Route | DUZLA DCT VEBAL DCT NIVES DCT IBENI/N0443F370 DCT ERDON DCT GOTMO DCT RITEB |
| Aircraft | A321/M-SDE1E2E3FGIJ1J4RWXY/LB1 |
Departure
| Time | 2026-05-04 12:11 |
|---|---|
| Airport | Budapest Liszt Ferenc International Airport (LHBP) |
Arrival
| Time | N/A |
|---|---|
| Airport | Rome–Fiumicino Leonardo da Vinci International Airport (LIRF) |
| Time | Latitude | Longitude | Altitude | Speed | Heading |
|---|---|---|---|---|---|
| 2026-05-04 11:57 | 47.43511 | 19.26478 | 458 ft | 0 kts | 222° |
| 2026-05-04 12:03 | 47.43511 | 19.26479 | 457 ft | 1 kts | 222° |
| 2026-05-04 12:04 | 47.43522 | 19.26494 | 456 ft | 3 kts | 230° |
| 2026-05-04 12:04 | 47.43533 | 19.26517 | 458 ft | 3 kts | 250° |
| 2026-05-04 12:04 | 47.43537 | 19.26544 | 458 ft | 3 kts | 279° |
| 2026-05-04 12:04 | 47.43532 | 19.26566 | 456 ft | 1 kts | 310° |
| 2026-05-04 12:05 | 47.43530 | 19.26569 | 453 ft | 0 kts | 312° |
| 2026-05-04 12:07 | 47.43534 | 19.26563 | 457 ft | 3 kts | 312° |
| 2026-05-04 12:07 | 47.43568 | 19.26508 | 458 ft | 10 kts | 312° |
| 2026-05-04 12:07 | 47.43620 | 19.26424 | 458 ft | 12 kts | 312° |
| 2026-05-04 12:08 | 47.43669 | 19.26330 | 458 ft | 12 kts | 296° |
| 2026-05-04 12:08 | 47.43677 | 19.26202 | 457 ft | 13 kts | 268° |
| 2026-05-04 12:08 | 47.43686 | 19.26064 | 457 ft | 14 kts | 294° |
| 2026-05-04 12:08 | 47.43749 | 19.25970 | 457 ft | 12 kts | 342° |
| 2026-05-04 12:09 | 47.43822 | 19.26028 | 457 ft | 13 kts | 43° |
| 2026-05-04 12:09 | 47.43891 | 19.26121 | 458 ft | 14 kts | 42° |
| 2026-05-04 12:09 | 47.43976 | 19.26235 | 459 ft | 19 kts | 42° |
| 2026-05-04 12:09 | 47.44056 | 19.26366 | 467 ft | 14 kts | 62° |
| 2026-05-04 12:10 | 47.44070 | 19.26480 | 472 ft | 10 kts | 93° |
| 2026-05-04 12:10 | 47.44040 | 19.26570 | 469 ft | 3 kts | 131° |
| 2026-05-04 12:10 | 47.44024 | 19.26597 | 468 ft | 24 kts | 132° |
| 2026-05-04 12:11 | 47.43732 | 19.27067 | 473 ft | 98 kts | 133° |
| 2026-05-04 12:11 | 47.43125 | 19.28044 | 458 ft | 158 kts | 132° |
| 2026-05-04 12:11 | 47.42319 | 19.29368 | 790 ft | 177 kts | 133° |
| 2026-05-04 12:11 | 47.41729 | 19.30925 | 1518 ft | 177 kts | 114° |
| 2026-05-04 12:12 | 47.41165 | 19.32653 | 1815 ft | 197 kts | 123° |
| 2026-05-04 12:12 | 47.40443 | 19.34502 | 2059 ft | 220 kts | 124° |
| 2026-05-04 12:12 | 47.39586 | 19.36508 | 2396 ft | 242 kts | 133° |
| 2026-05-04 12:12 | 47.38197 | 19.37974 | 2959 ft | 251 kts | 163° |
| 2026-05-04 12:13 | 47.36477 | 19.38206 | 3749 ft | 251 kts | 191° |
| 2026-05-04 12:14 | 47.27500 | 19.24896 | 9340 ft | 280 kts | 227° |
| 2026-05-04 12:15 | 47.26196 | 19.22740 | 10092 ft | 284 kts | 226° |
| 2026-05-04 12:15 | 47.24830 | 19.20490 | 10361 ft | 307 kts | 226° |
| 2026-05-04 12:15 | 47.23354 | 19.18066 | 10589 ft | 327 kts | 226° |
| 2026-05-04 12:15 | 47.21811 | 19.15539 | 11133 ft | 335 kts | 226° |
| 2026-05-04 12:16 | 47.20237 | 19.12967 | 11803 ft | 340 kts | 226° |
| 2026-05-04 12:16 | 47.18647 | 19.10366 | 12485 ft | 344 kts | 227° |
| 2026-05-04 12:16 | 47.17039 | 19.07735 | 13164 ft | 348 kts | 227° |
| 2026-05-04 12:16 | 47.15411 | 19.05073 | 13832 ft | 352 kts | 227° |
| 2026-05-04 12:17 | 47.13764 | 19.02379 | 14426 ft | 356 kts | 227° |
| 2026-05-04 12:17 | 47.12102 | 18.99662 | 15032 ft | 360 kts | 227° |
| 2026-05-04 12:17 | 47.10419 | 18.96916 | 15644 ft | 364 kts | 227° |
| 2026-05-04 12:17 | 47.08716 | 18.94140 | 16256 ft | 368 kts | 227° |
| 2026-05-04 12:18 | 47.06999 | 18.91338 | 16865 ft | 371 kts | 227° |
| 2026-05-04 12:18 | 47.05262 | 18.88508 | 17471 ft | 375 kts | 227° |
| 2026-05-04 12:18 | 47.03500 | 18.85647 | 18071 ft | 379 kts | 227° |
| 2026-05-04 12:18 | 47.01723 | 18.82769 | 18632 ft | 383 kts | 227° |
| 2026-05-04 12:19 | 46.99926 | 18.79866 | 19180 ft | 386 kts | 227° |
| 2026-05-04 12:19 | 46.98141 | 18.76986 | 19706 ft | 389 kts | 228° |
| 2026-05-04 12:19 | 46.96317 | 18.74042 | 20266 ft | 391 kts | 228° |
| 2026-05-04 12:19 | 46.94471 | 18.71094 | 20813 ft | 394 kts | 227° |
| 2026-05-04 12:20 | 46.92581 | 18.68169 | 21361 ft | 397 kts | 226° |
| 2026-05-04 12:20 | 46.90630 | 18.65212 | 21915 ft | 400 kts | 226° |
| 2026-05-04 12:20 | 46.88677 | 18.62282 | 22456 ft | 403 kts | 226° |
| 2026-05-04 12:20 | 46.86738 | 18.59377 | 22969 ft | 406 kts | 226° |
| 2026-05-04 12:21 | 46.84764 | 18.56406 | 23480 ft | 409 kts | 227° |
| 2026-05-04 12:21 | 46.82779 | 18.53410 | 23928 ft | 412 kts | 227° |
| 2026-05-04 12:21 | 46.80783 | 18.50391 | 24323 ft | 415 kts | 227° |
| 2026-05-04 12:21 | 46.78773 | 18.47354 | 24725 ft | 417 kts | 227° |
| 2026-05-04 12:22 | 46.76751 | 18.44299 | 25117 ft | 420 kts | 227° |
| 2026-05-04 12:22 | 46.74714 | 18.41222 | 25514 ft | 423 kts | 227° |
| 2026-05-04 12:22 | 46.72661 | 18.38128 | 25887 ft | 426 kts | 227° |
| 2026-05-04 12:22 | 46.70594 | 18.35017 | 26281 ft | 428 kts | 227° |
| 2026-05-04 12:23 | 46.68516 | 18.31893 | 26660 ft | 431 kts | 227° |
| 2026-05-04 12:23 | 46.66423 | 18.28750 | 27043 ft | 434 kts | 227° |
| 2026-05-04 12:23 | 46.64315 | 18.25588 | 27418 ft | 436 kts | 227° |
| 2026-05-04 12:23 | 46.62199 | 18.22417 | 27773 ft | 439 kts | 227° |
| 2026-05-04 12:24 | 46.60066 | 18.19225 | 28138 ft | 441 kts | 228° |
| 2026-05-04 12:24 | 46.57917 | 18.16016 | 28499 ft | 444 kts | 227° |
| 2026-05-04 12:24 | 46.55761 | 18.12800 | 28863 ft | 446 kts | 227° |
| 2026-05-04 12:24 | 46.53591 | 18.09564 | 29220 ft | 448 kts | 227° |
| 2026-05-04 12:25 | 46.51408 | 18.06314 | 29563 ft | 451 kts | 227° |
| 2026-05-04 12:25 | 46.49214 | 18.03052 | 29903 ft | 453 kts | 227° |
| 2026-05-04 12:25 | 46.47005 | 17.99773 | 30224 ft | 455 kts | 227° |
| 2026-05-04 12:25 | 46.44786 | 17.96482 | 30520 ft | 457 kts | 227° |
| 2026-05-04 12:26 | 46.42557 | 17.93175 | 30825 ft | 459 kts | 227° |
| 2026-05-04 12:26 | 46.41077 | 17.90981 | 31028 ft | 461 kts | 227° |
| 2026-05-04 12:26 | 46.38833 | 17.87663 | 31353 ft | 461 kts | 227° |
| 2026-05-04 12:26 | 46.36586 | 17.84349 | 31776 ft | 460 kts | 227° |
| 2026-05-04 12:27 | 46.33621 | 17.79985 | 32344 ft | 458 kts | 227° |
| 2026-05-04 12:27 | 46.31389 | 17.76706 | 32759 ft | 457 kts | 227° |
| 2026-05-04 12:27 | 46.29160 | 17.73436 | 33174 ft | 456 kts | 227° |
| 2026-05-04 12:27 | 46.26937 | 17.70177 | 33585 ft | 455 kts | 227° |
| 2026-05-04 12:28 | 46.25435 | 17.67972 | 33855 ft | 454 kts | 228° |
| 2026-05-04 12:28 | 46.23223 | 17.64720 | 34231 ft | 454 kts | 228° |
| 2026-05-04 12:28 | 46.21043 | 17.61516 | 34575 ft | 453 kts | 228° |
| 2026-05-04 12:28 | 46.18835 | 17.58279 | 34913 ft | 452 kts | 227° |
| 2026-05-04 12:29 | 46.16630 | 17.55057 | 35233 ft | 451 kts | 227° |
| 2026-05-04 12:29 | 46.14424 | 17.51842 | 35568 ft | 450 kts | 227° |
| 2026-05-04 12:29 | 46.12223 | 17.48642 | 35903 ft | 449 kts | 227° |
| 2026-05-04 12:29 | 46.10020 | 17.45441 | 36060 ft | 449 kts | 227° |
| 2026-05-04 12:30 | 46.05644 | 17.39093 | 36082 ft | 445 kts | 227° |
| 2026-05-04 12:30 | 46.01284 | 17.32770 | 36081 ft | 445 kts | 227° |
| 2026-05-04 12:31 | 45.97222 | 17.26114 | 36085 ft | 442 kts | 234° |
| 2026-05-04 12:31 | 45.93451 | 17.19132 | 36080 ft | 442 kts | 234° |
| 2026-05-04 12:32 | 45.87780 | 17.08673 | 36097 ft | 443 kts | 234° |
| 2026-05-04 12:33 | 45.83986 | 17.01700 | 36096 ft | 443 kts | 234° |
| 2026-05-04 12:33 | 45.80191 | 16.94739 | 36100 ft | 443 kts | 234° |
| 2026-05-04 12:34 | 45.76391 | 16.87786 | 36102 ft | 443 kts | 234° |
| 2026-05-04 12:34 | 45.72619 | 16.80886 | 36100 ft | 443 kts | 234° |
| 2026-05-04 12:35 | 45.68811 | 16.73951 | 36094 ft | 443 kts | 234° |
| 2026-05-04 12:35 | 45.64999 | 16.67035 | 36092 ft | 443 kts | 234° |
| 2026-05-04 12:36 | 45.61191 | 16.60123 | 36091 ft | 443 kts | 234° |
| 2026-05-04 12:36 | 45.57377 | 16.53231 | 36087 ft | 442 kts | 234° |
| 2026-05-04 12:37 | 45.53562 | 16.46356 | 36085 ft | 442 kts | 234° |
| 2026-05-04 12:37 | 45.49742 | 16.39492 | 36084 ft | 442 kts | 234° |
| 2026-05-04 12:38 | 45.45926 | 16.32637 | 36085 ft | 442 kts | 234° |
| 2026-05-04 12:38 | 45.42104 | 16.25786 | 36084 ft | 441 kts | 234° |
| 2026-05-04 12:39 | 45.38305 | 16.19002 | 36083 ft | 441 kts | 234° |
| 2026-05-04 12:39 | 45.34475 | 16.12197 | 36085 ft | 441 kts | 234° |
| 2026-05-04 12:40 | 45.30648 | 16.05398 | 36086 ft | 440 kts | 234° |
| 2026-05-04 12:40 | 45.26827 | 15.98612 | 36084 ft | 439 kts | 234° |
| 2026-05-04 12:41 | 45.23005 | 15.91854 | 36087 ft | 439 kts | 233° |
| 2026-05-04 12:41 | 45.19143 | 15.85158 | 36090 ft | 438 kts | 233° |
| 2026-05-04 12:42 | 45.15223 | 15.78551 | 36087 ft | 438 kts | 232° |
| 2026-05-04 12:42 | 45.11299 | 15.71967 | 36087 ft | 437 kts | 232° |
| 2026-05-04 12:43 | 45.07394 | 15.65386 | 36089 ft | 436 kts | 233° |
| 2026-05-04 12:43 | 45.03496 | 15.58816 | 36100 ft | 436 kts | 232° |
| 2026-05-04 12:44 | 44.99598 | 15.52266 | 36104 ft | 435 kts | 232° |
| 2026-05-04 12:44 | 44.95696 | 15.45727 | 36111 ft | 435 kts | 232° |
| 2026-05-04 12:45 | 44.91797 | 15.39208 | 36117 ft | 434 kts | 232° |
| 2026-05-04 12:45 | 44.87898 | 15.32707 | 36124 ft | 434 kts | 232° |
| 2026-05-04 12:46 | 44.83999 | 15.26214 | 36128 ft | 433 kts | 232° |
| 2026-05-04 12:46 | 44.80104 | 15.19736 | 36134 ft | 433 kts | 232° |
| 2026-05-04 12:47 | 44.76203 | 15.13278 | 36136 ft | 433 kts | 232° |
| 2026-05-04 12:47 | 44.72296 | 15.06842 | 36143 ft | 432 kts | 232° |
| 2026-05-04 12:48 | 44.68399 | 15.00417 | 36150 ft | 432 kts | 232° |
| 2026-05-04 12:48 | 44.64501 | 14.93995 | 36155 ft | 432 kts | 232° |
| 2026-05-04 12:49 | 44.60605 | 14.87592 | 36158 ft | 431 kts | 231° |
| 2026-05-04 12:49 | 44.56705 | 14.81204 | 36151 ft | 431 kts | 232° |
| 2026-05-04 12:50 | 44.52833 | 14.74876 | 36147 ft | 431 kts | 231° |
| 2026-05-04 12:50 | 44.48931 | 14.68515 | 36145 ft | 430 kts | 231° |
| 2026-05-04 12:51 | 44.45022 | 14.62161 | 36144 ft | 430 kts | 231° |
| 2026-05-04 12:51 | 44.41111 | 14.55817 | 36139 ft | 430 kts | 231° |
| 2026-05-04 12:52 | 44.37202 | 14.49479 | 36136 ft | 430 kts | 231° |
| 2026-05-04 12:52 | 44.33297 | 14.43152 | 36131 ft | 430 kts | 231° |
| 2026-05-04 12:53 | 44.29382 | 14.36841 | 36136 ft | 430 kts | 231° |
| 2026-05-04 12:53 | 44.25463 | 14.30547 | 36141 ft | 429 kts | 231° |
| 2026-05-04 12:54 | 44.21546 | 14.24265 | 36125 ft | 429 kts | 231° |
| 2026-05-04 12:54 | 44.17631 | 14.17993 | 36131 ft | 429 kts | 231° |
| 2026-05-04 12:55 | 44.13720 | 14.11733 | 36128 ft | 428 kts | 231° |
| 2026-05-04 12:55 | 44.09809 | 14.05495 | 36129 ft | 428 kts | 231° |
| 2026-05-04 12:56 | 44.05894 | 13.99271 | 36128 ft | 427 kts | 230° |
| 2026-05-04 12:56 | 44.02008 | 13.93107 | 36136 ft | 427 kts | 230° |
| 2026-05-04 12:57 | 43.97641 | 13.87432 | 36121 ft | 427 kts | 224° |
| 2026-05-04 12:57 | 43.93223 | 13.81933 | 36126 ft | 426 kts | 224° |
| 2026-05-04 12:57 | 43.91014 | 13.79184 | 35868 ft | 426 kts | 224° |
| 2026-05-04 12:58 | 43.88815 | 13.76451 | 35481 ft | 423 kts | 224° |
| 2026-05-04 12:58 | 43.86633 | 13.73739 | 35104 ft | 420 kts | 224° |
| 2026-05-04 12:58 | 43.84467 | 13.71052 | 34737 ft | 417 kts | 224° |
| 2026-05-04 12:58 | 43.82341 | 13.68418 | 34378 ft | 414 kts | 223° |
| 2026-05-04 12:59 | 43.80205 | 13.65775 | 34001 ft | 410 kts | 223° |
| 2026-05-04 12:59 | 43.78087 | 13.63147 | 33593 ft | 407 kts | 223° |
| 2026-05-04 12:59 | 43.75984 | 13.60542 | 33192 ft | 405 kts | 223° |
| 2026-05-04 12:59 | 43.73892 | 13.57955 | 32779 ft | 402 kts | 223° |
| 2026-05-04 13:00 | 43.71809 | 13.55389 | 32395 ft | 400 kts | 223° |
| 2026-05-04 13:00 | 43.69734 | 13.52828 | 32007 ft | 399 kts | 223° |
| 2026-05-04 13:00 | 43.67672 | 13.50281 | 31626 ft | 397 kts | 223° |
| 2026-05-04 13:00 | 43.65614 | 13.47747 | 31249 ft | 395 kts | 223° |
| 2026-05-04 13:01 | 43.63567 | 13.45227 | 30874 ft | 393 kts | 223° |
| 2026-05-04 13:01 | 43.61530 | 13.42722 | 30521 ft | 392 kts | 223° |
| 2026-05-04 13:01 | 43.59497 | 13.40226 | 30143 ft | 390 kts | 222° |
| 2026-05-04 13:01 | 43.57476 | 13.37750 | 29719 ft | 388 kts | 222° |
| 2026-05-04 13:02 | 43.55467 | 13.35288 | 29297 ft | 385 kts | 222° |
| 2026-05-04 13:02 | 43.53468 | 13.32843 | 28885 ft | 383 kts | 222° |
| 2026-05-04 13:02 | 43.51477 | 13.30411 | 28475 ft | 381 kts | 222° |
| 2026-05-04 13:02 | 43.49499 | 13.27993 | 28072 ft | 379 kts | 222° |
| 2026-05-04 13:03 | 43.47535 | 13.25591 | 27662 ft | 377 kts | 222° |
| 2026-05-04 13:03 | 43.45581 | 13.23207 | 27284 ft | 374 kts | 222° |
| 2026-05-04 13:03 | 43.43638 | 13.20835 | 26903 ft | 372 kts | 223° |
| 2026-05-04 13:03 | 43.41708 | 13.18480 | 26542 ft | 370 kts | 223° |
| 2026-05-04 13:04 | 43.39787 | 13.16146 | 26161 ft | 367 kts | 222° |
| 2026-05-04 13:04 | 43.37879 | 13.13829 | 25791 ft | 365 kts | 223° |
| 2026-05-04 13:04 | 43.35983 | 13.11529 | 25434 ft | 362 kts | 223° |
| 2026-05-04 13:04 | 43.34100 | 13.09245 | 25066 ft | 360 kts | 223° |
| 2026-05-04 13:05 | 43.32232 | 13.06982 | 24715 ft | 357 kts | 223° |
| 2026-05-04 13:05 | 43.30396 | 13.04760 | 24371 ft | 355 kts | 223° |
| 2026-05-04 13:05 | 43.28635 | 13.02405 | 24027 ft | 352 kts | 229° |
| 2026-05-04 13:05 | 43.26979 | 12.99935 | 23685 ft | 351 kts | 229° |
| 2026-05-04 13:06 | 43.25331 | 12.97479 | 23285 ft | 349 kts | 229° |
| 2026-05-04 13:06 | 43.23689 | 12.95036 | 22880 ft | 347 kts | 228° |
| 2026-05-04 13:06 | 43.22053 | 12.92613 | 22487 ft | 345 kts | 228° |
| 2026-05-04 13:06 | 43.20427 | 12.90210 | 22088 ft | 343 kts | 228° |
| 2026-05-04 13:07 | 43.18812 | 12.87825 | 21710 ft | 340 kts | 228° |
| 2026-05-04 13:07 | 43.17207 | 12.85459 | 21338 ft | 338 kts | 228° |
| 2026-05-04 13:07 | 43.15617 | 12.83108 | 20954 ft | 335 kts | 228° |
| 2026-05-04 13:07 | 43.14042 | 12.80776 | 20583 ft | 333 kts | 229° |
| 2026-05-04 13:08 | 43.12473 | 12.78459 | 20213 ft | 330 kts | 228° |
| 2026-05-04 13:08 | 43.10911 | 12.76166 | 19847 ft | 328 kts | 228° |
| 2026-05-04 13:08 | 43.09363 | 12.73890 | 19489 ft | 325 kts | 228° |
| 2026-05-04 13:08 | 43.07825 | 12.71627 | 19131 ft | 323 kts | 229° |
| 2026-05-04 13:09 | 43.06301 | 12.69387 | 18935 ft | 322 kts | 228° |
| 2026-05-04 13:09 | 43.04749 | 12.67108 | 18784 ft | 340 kts | 229° |
| 2026-05-04 13:09 | 43.03073 | 12.64644 | 18620 ft | 368 kts | 228° |
| 2026-05-04 13:09 | 43.01267 | 12.61996 | 18455 ft | 394 kts | 228° |
| 2026-05-04 13:10 | 42.99346 | 12.59180 | 18254 ft | 414 kts | 228° |
| 2026-05-04 13:10 | 42.97389 | 12.56319 | 18065 ft | 420 kts | 228° |
| 2026-05-04 13:10 | 42.95392 | 12.53403 | 17877 ft | 421 kts | 228° |
| 2026-05-04 13:10 | 42.93394 | 12.50485 | 17698 ft | 421 kts | 228° |
| 2026-05-04 13:11 | 42.91395 | 12.47572 | 17509 ft | 420 kts | 227° |
| 2026-05-04 13:11 | 42.89403 | 12.44668 | 17317 ft | 419 kts | 227° |
| 2026-05-04 13:11 | 42.87412 | 12.41769 | 17141 ft | 418 kts | 227° |
| 2026-05-04 13:11 | 42.85309 | 12.39046 | 16954 ft | 418 kts | 217° |
| 2026-05-04 13:12 | 42.82780 | 12.37099 | 16781 ft | 418 kts | 206° |
| 2026-05-04 13:12 | 42.80152 | 12.35404 | 16598 ft | 418 kts | 206° |
| 2026-05-04 13:12 | 42.77526 | 12.33722 | 16424 ft | 415 kts | 206° |